createdAt,value
2022-11-09T00:00:45.576Z,11.32
2022-11-09T00:03:13.045Z,11.45
2022-11-09T00:05:41.086Z,11.45
2022-11-09T00:08:09.638Z,11.54
2022-11-09T00:10:37.544Z,11.59
2022-11-09T00:13:05.240Z,11.60
2022-11-09T00:15:32.510Z,11.61
2022-11-09T00:18:03.299Z,11.66
2022-11-09T00:20:30.938Z,11.69
2022-11-09T00:22:58.233Z,11.70
2022-11-09T00:25:25.460Z,11.71
2022-11-09T00:27:53.440Z,11.73
2022-11-09T00:30:20.806Z,11.69
2022-11-09T00:32:48.311Z,11.60
2022-11-09T00:35:15.600Z,11.53
2022-11-09T00:37:42.849Z,11.52
2022-11-09T00:40:10.864Z,11.50
2022-11-09T00:42:38.073Z,11.47
2022-11-09T00:45:05.503Z,11.52
2022-11-09T00:47:32.746Z,11.47
2022-11-09T00:49:59.937Z,11.46
2022-11-09T00:52:27.177Z,11.51
2022-11-09T00:54:54.374Z,11.41
2022-11-09T00:57:21.580Z,11.41
2022-11-09T00:59:48.925Z,11.40
2022-11-09T01:02:16.135Z,11.40
2022-11-09T01:04:43.366Z,11.38
2022-11-09T01:07:10.642Z,11.35
2022-11-09T01:09:38.421Z,11.30
2022-11-09T01:12:05.731Z,11.25
2022-11-09T01:14:32.981Z,11.19
2022-11-09T01:17:00.182Z,11.10
2022-11-09T01:19:27.417Z,10.96
2022-11-09T01:21:54.678Z,10.88
2022-11-09T01:24:21.895Z,10.81
2022-11-09T01:26:49.117Z,10.70
2022-11-09T01:29:16.344Z,10.69
2022-11-09T01:31:43.646Z,10.70
2022-11-09T01:34:10.974Z,10.68
2022-11-09T01:36:38.175Z,10.60
2022-11-09T01:39:05.575Z,10.57
2022-11-09T01:41:32.935Z,10.57
2022-11-09T01:44:18.928Z,10.51
2022-11-09T01:46:53.385Z,10.43
2022-11-09T01:49:42.359Z,10.40
2022-11-09T01:52:24.438Z,10.41
2022-11-09T01:54:57.582Z,10.33
2022-11-09T01:57:34.822Z,10.48
2022-11-09T02:00:07.457Z,10.42
2022-11-09T02:02:35.604Z,10.34
2022-11-09T02:05:10.877Z,10.25
2022-11-09T02:07:38.601Z,10.22
2022-11-09T02:10:30.827Z,10.24
2022-11-09T02:12:59.684Z,10.16
2022-11-09T02:15:27.325Z,10.03
2022-11-09T02:17:55.430Z,10.06
2022-11-09T02:20:23.123Z,10.03
2022-11-09T02:22:50.429Z,10.02
2022-11-09T02:25:18.477Z,9.98
2022-11-09T02:27:46.129Z,9.96
2022-11-09T02:30:13.930Z,9.91
2022-11-09T02:32:41.317Z,9.87
2022-11-09T02:35:09.505Z,9.80
2022-11-09T02:37:48.551Z,9.79
2022-11-09T02:40:25.354Z,9.74
2022-11-09T02:42:52.683Z,9.71
2022-11-09T02:45:19.949Z,9.70
2022-11-09T02:47:47.127Z,9.69
2022-11-09T02:50:14.349Z,9.63
2022-11-09T02:52:41.608Z,9.62
2022-11-09T02:55:09.102Z,9.69
2022-11-09T02:57:36.348Z,9.66
2022-11-09T03:00:04.051Z,9.63
2022-11-09T03:02:31.386Z,9.54
2022-11-09T03:04:58.651Z,9.63
2022-11-09T03:07:26.764Z,9.80
2022-11-09T03:09:54.194Z,9.94
2022-11-09T03:12:30.296Z,10.07
2022-11-09T03:15:03.164Z,10.14
2022-11-09T03:17:31.553Z,10.19
2022-11-09T03:19:58.811Z,10.31
2022-11-09T03:22:26.018Z,10.35
2022-11-09T03:24:53.276Z,10.37
2022-11-09T03:27:20.504Z,10.38
2022-11-09T03:29:47.739Z,10.39
2022-11-09T03:32:14.945Z,10.44
2022-11-09T03:34:42.176Z,10.43
2022-11-09T03:37:09.762Z,10.46
2022-11-09T03:39:37.001Z,10.54
2022-11-09T03:42:04.276Z,10.58
2022-11-09T03:44:31.462Z,10.68
2022-11-09T03:46:58.728Z,10.65
2022-11-09T03:49:25.938Z,10.72
2022-11-09T03:51:53.133Z,10.61
2022-11-09T03:54:20.346Z,10.70
2022-11-09T03:56:47.526Z,10.77
2022-11-09T03:59:14.944Z,10.65
2022-11-09T04:01:42.272Z,10.58
2022-11-09T04:04:09.563Z,10.55
2022-11-09T04:06:36.919Z,10.54
2022-11-09T04:09:04.286Z,10.51
2022-11-09T04:11:31.616Z,10.53
2022-11-09T04:13:58.868Z,10.47
2022-11-09T04:16:26.216Z,10.55
2022-11-09T04:18:53.487Z,10.43
2022-11-09T04:21:23.872Z,10.48
2022-11-09T04:23:51.438Z,10.52
2022-11-09T04:26:18.634Z,10.58
2022-11-09T04:28:45.927Z,10.43
2022-11-09T04:31:13.177Z,10.51
2022-11-09T04:33:40.423Z,10.60
2022-11-09T04:36:07.980Z,10.68
2022-11-09T04:38:36.510Z,10.60
2022-11-09T04:41:04.726Z,10.67
2022-11-09T04:43:31.995Z,10.72
2022-11-09T04:46:04.143Z,10.72
2022-11-09T04:48:32.682Z,10.64
2022-11-09T04:51:08.487Z,10.65
2022-11-09T04:53:36.367Z,10.65
2022-11-09T04:56:04.532Z,10.72
2022-11-09T04:58:31.924Z,10.79
2022-11-09T05:01:06.927Z,10.86
2022-11-09T05:03:34.429Z,10.80
2022-11-09T05:06:01.817Z,10.85
2022-11-09T05:08:29.079Z,10.94
2022-11-09T05:10:59.299Z,10.89
2022-11-09T05:13:26.683Z,10.91
2022-11-09T05:15:53.978Z,10.95
2022-11-09T05:18:21.246Z,10.99
2022-11-09T05:20:48.796Z,11.02
2022-11-09T05:23:34.489Z,11.17
2022-11-09T05:26:01.741Z,11.21
2022-11-09T05:28:28.979Z,11.17
2022-11-09T05:30:56.260Z,11.15
2022-11-09T05:33:23.607Z,11.08
2022-11-09T05:35:50.975Z,11.16
2022-11-09T05:38:18.224Z,11.16
2022-11-09T05:40:47.569Z,11.08
2022-11-09T05:43:14.964Z,11.14
2022-11-09T05:45:43.952Z,11.18
2022-11-09T05:48:12.769Z,11.19
2022-11-09T05:50:41.254Z,11.21
2022-11-09T05:53:08.813Z,11.23
2022-11-09T05:55:36.225Z,11.12
2022-11-09T05:58:03.684Z,11.22
2022-11-09T06:00:30.952Z,11.31
2022-11-09T06:03:06.037Z,11.24
2022-11-09T06:05:34.333Z,11.30
2022-11-09T06:08:06.529Z,11.30
2022-11-09T06:10:33.839Z,11.30
2022-11-09T06:13:01.094Z,11.22
2022-11-09T06:15:28.427Z,11.33
2022-11-09T06:18:00.486Z,11.39
2022-11-09T06:20:28.473Z,11.41
2022-11-09T06:23:02.469Z,11.45
2022-11-09T06:25:31.817Z,11.33
2022-11-09T06:27:59.230Z,11.31
2022-11-09T06:30:26.465Z,11.27
2022-11-09T06:32:59.289Z,11.28
2022-11-09T06:35:26.556Z,11.26
2022-11-09T06:38:00.651Z,11.10
2022-11-09T06:40:28.356Z,11.08
2022-11-09T06:43:01.818Z,11.03
2022-11-09T06:45:29.786Z,10.92
2022-11-09T06:48:01.763Z,10.93
2022-11-09T06:50:31.114Z,10.84
2022-11-09T06:53:02.213Z,10.80
2022-11-09T06:55:29.971Z,10.74
2022-11-09T06:57:57.500Z,10.76
2022-11-09T07:00:26.092Z,10.75
2022-11-09T07:02:53.603Z,10.80
2022-11-09T07:05:21.338Z,10.69
2022-11-09T07:07:48.847Z,10.61
2022-11-09T07:10:16.578Z,10.60
2022-11-09T07:12:43.903Z,10.62
2022-11-09T07:15:11.967Z,10.59
2022-11-09T07:17:39.875Z,10.58
2022-11-09T07:20:08.261Z,10.56
2022-11-09T07:22:39.285Z,10.49
2022-11-09T07:25:11.235Z,10.46
2022-11-09T07:27:38.424Z,10.57
2022-11-09T07:30:05.974Z,10.72
2022-11-09T07:35:24.274Z,10.94
2022-11-09T07:37:51.490Z,10.99
2022-11-09T07:40:18.938Z,10.98
2022-11-09T07:42:46.170Z,10.90
2022-11-09T07:45:13.447Z,10.78
2022-11-09T07:47:40.616Z,10.74
2022-11-09T07:50:07.914Z,10.75
2022-11-09T07:52:35.084Z,10.76
2022-11-09T07:55:02.251Z,10.77
2022-11-09T07:57:29.429Z,10.78
2022-11-09T07:59:56.610Z,10.74
2022-11-09T08:02:23.830Z,10.68
2022-11-09T08:04:51.089Z,10.72
2022-11-09T08:07:18.259Z,10.65
2022-11-09T08:09:45.443Z,10.71
2022-11-09T08:12:12.623Z,10.80
2022-11-09T08:14:39.804Z,10.81
2022-11-09T08:17:06.988Z,10.77
2022-11-09T08:19:34.226Z,10.77
2022-11-09T08:22:01.474Z,10.83
2022-11-09T08:24:28.673Z,10.80
2022-11-09T08:26:55.849Z,10.85
2022-11-09T08:29:23.093Z,10.85
2022-11-09T08:31:51.415Z,10.81
2022-11-09T08:34:18.722Z,10.89
2022-11-09T08:36:45.898Z,10.87
2022-11-09T08:39:13.086Z,10.88
2022-11-09T08:41:40.261Z,10.87
2022-11-09T08:44:07.419Z,10.93
2022-11-09T08:46:39.916Z,10.91
2022-11-09T08:49:08.410Z,11.02
2022-11-09T08:51:35.659Z,11.04
2022-11-09T08:54:02.882Z,11.02
2022-11-09T08:56:30.104Z,11.07
2022-11-09T08:58:57.316Z,11.05
2022-11-09T09:01:25.415Z,11.13
2022-11-09T09:03:52.707Z,11.11
2022-11-09T09:06:19.944Z,11.14
2022-11-09T09:08:47.151Z,11.19
2022-11-09T09:11:15.241Z,11.24
2022-11-09T09:13:43.733Z,11.36
2022-11-09T09:16:15.397Z,11.38
2022-11-09T09:18:43.102Z,11.46
2022-11-09T09:21:10.792Z,11.55
2022-11-09T09:23:38.117Z,11.70
2022-11-09T09:26:05.591Z,11.88
2022-11-09T09:28:33.026Z,12.03
2022-11-09T09:31:00.862Z,12.14
2022-11-09T09:33:28.673Z,12.27
2022-11-09T09:35:57.592Z,12.28
2022-11-09T09:38:25.366Z,12.23
2022-11-09T09:41:03.774Z,12.12
2022-11-09T09:43:30.947Z,12.10
2022-11-09T09:45:59.713Z,12.05
2022-11-09T09:48:26.853Z,12.03
2022-11-09T09:50:56.578Z,12.01
2022-11-09T09:53:47.513Z,12.04
2022-11-09T09:56:24.394Z,11.97
2022-11-09T09:59:07.110Z,12.00
2022-11-09T10:01:42.637Z,11.98
2022-11-09T10:04:17.274Z,12.06
2022-11-09T10:06:50.486Z,12.12
2022-11-09T10:09:53.547Z,12.14
2022-11-09T10:12:29.558Z,12.20
2022-11-09T10:15:15.935Z,12.13
2022-11-09T10:17:56.383Z,12.10
2022-11-09T10:20:36.171Z,12.02
2022-11-09T10:23:38.498Z,12.05
2022-11-09T10:26:19.293Z,12.13
2022-11-09T10:29:15.741Z,12.18
2022-11-09T10:31:45.549Z,12.29
2022-11-09T10:34:21.839Z,12.46
2022-11-09T10:36:58.409Z,12.61
2022-11-09T10:39:26.806Z,12.80
2022-11-09T10:41:54.103Z,12.94
2022-11-09T10:44:21.551Z,13.10
2022-11-09T10:47:08.990Z,13.12
2022-11-09T10:49:36.957Z,13.31
2022-11-09T10:52:05.297Z,13.48
2022-11-09T10:54:35.391Z,13.60
2022-11-09T10:57:16.700Z,13.70
2022-11-09T10:59:56.197Z,13.87
2022-11-09T11:02:26.283Z,13.68
2022-11-09T11:05:16.446Z,13.65
2022-11-09T11:07:43.714Z,13.78
2022-11-09T11:10:21.940Z,13.86
2022-11-09T11:13:17.692Z,14.00
2022-11-09T11:15:45.174Z,13.97
2022-11-09T11:18:19.997Z,14.07
2022-11-09T11:20:47.461Z,13.99
2022-11-09T11:23:20.713Z,14.01
2022-11-09T11:25:57.034Z,14.04
2022-11-09T11:28:38.548Z,14.13
2022-11-09T11:31:13.972Z,14.18
2022-11-09T11:33:41.419Z,14.29
2022-11-09T11:36:26.562Z,14.37
2022-11-09T11:39:13.808Z,14.29
2022-11-09T11:41:53.400Z,14.28
2022-11-09T11:44:29.711Z,14.27
2022-11-09T11:47:20.614Z,14.18
2022-11-09T11:50:20.896Z,14.11
2022-11-09T11:53:06.817Z,13.98
2022-11-09T11:56:01.640Z,13.94
2022-11-09T11:58:57.003Z,14.04
2022-11-09T12:01:38.585Z,13.95
2022-11-09T12:04:53.127Z,13.93
2022-11-09T12:07:30.503Z,13.98
2022-11-09T12:10:28.841Z,14.19
2022-11-09T12:13:01.810Z,14.20
2022-11-09T12:16:07.712Z,14.20
2022-11-09T12:18:53.239Z,14.12
2022-11-09T12:21:31.452Z,14.15
2022-11-09T12:24:18.192Z,14.12
2022-11-09T12:27:30.966Z,14.12
2022-11-09T12:30:15.156Z,14.19
2022-11-09T12:32:44.746Z,14.17
2022-11-09T12:35:15.252Z,14.29
2022-11-09T12:38:07.912Z,14.33
2022-11-09T12:40:39.588Z,14.40
2022-11-09T12:43:19.997Z,14.30
2022-11-09T12:45:48.564Z,14.23
2022-11-09T12:48:31.036Z,14.14
2022-11-09T12:50:59.980Z,14.09
2022-11-09T12:53:36.957Z,14.05
2022-11-09T12:56:25.828Z,14.02
2022-11-09T12:58:53.358Z,14.00
2022-11-09T13:01:26.381Z,14.01
2022-11-09T13:03:55.717Z,13.99
2022-11-09T13:06:24.739Z,13.95
2022-11-09T13:09:04.992Z,13.98
2022-11-09T13:11:40.905Z,13.96
2022-11-09T13:14:30.148Z,13.94
2022-11-09T13:16:59.724Z,13.92
2022-11-09T13:19:36.044Z,13.93
2022-11-09T13:22:16.108Z,13.87
2022-11-09T13:25:00.774Z,13.85
2022-11-09T13:27:39.989Z,13.90
2022-11-09T13:30:28.400Z,13.79
2022-11-09T13:33:10.551Z,13.83
2022-11-09T13:35:40.755Z,13.75
2022-11-09T13:38:29.047Z,13.75
2022-11-09T13:41:00.868Z,13.74
2022-11-09T13:43:37.572Z,13.74
2022-11-09T13:46:14.605Z,13.69
2022-11-09T13:48:42.671Z,13.75
2022-11-09T13:51:14.528Z,13.72
2022-11-09T13:53:59.460Z,13.72
2022-11-09T13:56:41.136Z,13.70
2022-11-09T13:59:14.756Z,13.66
2022-11-09T14:01:56.454Z,13.57
2022-11-09T14:04:27.676Z,13.52
2022-11-09T14:07:01.578Z,13.49
2022-11-09T14:09:30.846Z,13.45
2022-11-09T14:12:08.827Z,13.36
2022-11-09T14:14:42.834Z,13.39
2022-11-09T14:17:31.555Z,13.35
2022-11-09T14:20:31.386Z,13.24
2022-11-09T14:22:58.622Z,13.24
2022-11-09T14:25:25.993Z,13.20
2022-11-09T14:27:57.865Z,13.23
2022-11-09T14:30:28.181Z,13.18
2022-11-09T14:32:56.516Z,13.19
2022-11-09T14:35:27.576Z,13.16
2022-11-09T14:37:55.800Z,13.19
2022-11-09T14:40:31.344Z,13.14
2022-11-09T14:43:39.230Z,13.01
2022-11-09T14:46:14.729Z,12.98
2022-11-09T14:48:57.535Z,12.98
2022-11-09T14:51:32.827Z,12.94
2022-11-09T14:54:01.344Z,12.89
2022-11-09T14:56:30.454Z,12.86
2022-11-09T14:58:58.136Z,12.81
2022-11-09T15:01:26.953Z,12.77
2022-11-09T15:04:19.957Z,12.77
2022-11-09T15:06:56.944Z,12.77
2022-11-09T15:09:44.739Z,12.73
2022-11-09T15:12:15.858Z,12.73
2022-11-09T15:14:47.517Z,12.73
2022-11-09T15:17:17.679Z,12.70
2022-11-09T15:19:56.849Z,12.71
2022-11-09T15:22:42.796Z,12.68
2022-11-09T15:25:31.926Z,12.70
2022-11-09T15:28:11.241Z,12.65
2022-11-09T15:30:43.250Z,12.63
2022-11-09T15:33:19.160Z,12.57
2022-11-09T15:35:58.609Z,12.56
2022-11-09T15:38:37.684Z,12.52
2022-11-09T15:41:13.363Z,12.51
2022-11-09T15:43:44.731Z,12.48
2022-11-09T15:46:17.911Z,12.46
2022-11-09T15:48:46.374Z,12.45
2022-11-09T15:51:15.215Z,12.42
2022-11-09T15:53:42.660Z,12.37
2022-11-09T15:56:28.019Z,12.30
2022-11-09T15:58:55.271Z,12.25
2022-11-09T16:01:22.607Z,12.30
2022-11-09T16:03:49.868Z,12.24
2022-11-09T16:06:19.088Z,12.22
2022-11-09T16:08:46.850Z,12.17
2022-11-09T16:11:14.210Z,12.09
2022-11-09T16:13:41.534Z,12.11
2022-11-09T16:16:10.582Z,12.11
2022-11-09T16:18:37.921Z,12.09
2022-11-09T16:21:16.187Z,12.07
2022-11-09T16:23:44.022Z,12.05
2022-11-09T16:26:16.531Z,12.04
2022-11-09T16:28:44.336Z,12.05
2022-11-09T16:31:12.797Z,12.05
2022-11-09T16:33:40.613Z,12.02
2022-11-09T16:36:15.362Z,12.02
2022-11-09T16:38:49.264Z,12.02
2022-11-09T16:41:18.004Z,11.98
2022-11-09T16:43:46.785Z,11.99
2022-11-09T16:46:18.072Z,11.99
2022-11-09T16:48:45.383Z,11.90
2022-11-09T16:51:12.571Z,11.84
2022-11-09T16:53:39.797Z,11.83
2022-11-09T16:56:07.119Z,11.82
2022-11-09T16:58:34.325Z,11.81
2022-11-09T17:01:11.630Z,11.78
2022-11-09T17:03:40.215Z,11.74
2022-11-09T17:06:18.028Z,11.71
2022-11-09T17:08:45.503Z,11.66
2022-11-09T17:11:15.727Z,11.64
2022-11-09T17:13:43.233Z,11.63
2022-11-09T17:16:12.753Z,11.65
2022-11-09T17:18:43.139Z,11.60
2022-11-09T17:21:14.489Z,11.57
2022-11-09T17:23:42.873Z,11.55
2022-11-09T17:26:15.703Z,11.59
2022-11-09T17:28:44.134Z,11.62
2022-11-09T17:31:22.459Z,11.60
2022-11-09T17:33:49.783Z,11.61
2022-11-09T17:36:29.721Z,11.59
2022-11-09T17:39:06.576Z,11.55
2022-11-09T17:41:35.601Z,11.52
2022-11-09T17:44:06.136Z,11.50
2022-11-09T17:46:34.627Z,11.51
2022-11-09T17:49:10.280Z,11.53
2022-11-09T17:51:39.092Z,11.51
2022-11-09T17:54:06.788Z,11.57
2022-11-09T17:56:34.131Z,11.57
2022-11-09T17:59:04.565Z,11.54
2022-11-09T18:01:36.369Z,11.57
2022-11-09T18:04:07.069Z,11.56
2022-11-09T18:06:34.288Z,11.62
2022-11-09T18:09:39.218Z,11.74
2022-11-09T18:11:52.004Z,11.89
2022-11-09T18:14:19.500Z,12.02
2022-11-09T18:16:46.967Z,12.06
2022-11-09T18:19:14.271Z,12.06
2022-11-09T18:21:41.507Z,12.15
2022-11-09T18:24:11.618Z,12.27
2022-11-09T18:26:38.802Z,12.22
2022-11-09T18:29:06.008Z,12.28
2022-11-09T18:31:33.233Z,12.35
2022-11-09T18:34:00.482Z,12.37
2022-11-09T18:36:27.915Z,12.32
2022-11-09T18:38:55.998Z,12.30
2022-11-09T18:41:24.735Z,12.22
2022-11-09T18:43:53.919Z,12.19
2022-11-09T18:46:22.018Z,12.14
2022-11-09T18:48:53.188Z,12.08
2022-11-09T18:51:20.868Z,12.03
2022-11-09T18:53:48.628Z,11.96
2022-11-09T18:56:19.002Z,11.89
2022-11-09T18:58:46.851Z,11.85
2022-11-09T19:01:14.930Z,11.81
2022-11-09T19:03:42.274Z,11.78
2022-11-09T19:06:13.201Z,11.75
2022-11-09T19:08:58.817Z,11.72
2022-11-09T19:11:26.435Z,11.70
2022-11-09T19:13:54.574Z,11.65
2022-11-09T19:16:22.225Z,11.64
2022-11-09T19:18:49.869Z,11.61
2022-11-09T19:21:34.561Z,11.64
2022-11-09T19:24:01.826Z,11.61
2022-11-09T19:26:29.243Z,11.60
2022-11-09T19:28:56.463Z,11.59
2022-11-09T19:31:24.440Z,11.56
2022-11-09T19:33:52.310Z,11.58
2022-11-09T19:36:30.192Z,11.56
2022-11-09T19:38:58.531Z,11.54
2022-11-09T19:41:26.161Z,11.50
2022-11-09T19:43:55.836Z,11.52
2022-11-09T19:46:23.203Z,11.51
2022-11-09T19:48:50.374Z,11.50
2022-11-09T19:51:18.540Z,11.50
2022-11-09T19:53:50.501Z,11.47
2022-11-09T19:56:18.489Z,11.45
2022-11-09T19:58:50.128Z,11.43
2022-11-09T20:01:18.345Z,11.42
2022-11-09T20:03:50.792Z,11.32
2022-11-09T20:06:18.726Z,11.28
2022-11-09T20:08:47.310Z,11.29
2022-11-09T20:11:36.828Z,11.29
2022-11-09T20:14:05.156Z,11.26
2022-11-09T20:16:33.102Z,11.23
2022-11-09T20:19:01.480Z,11.18
2022-11-09T20:21:28.762Z,11.14
2022-11-09T20:23:55.998Z,11.11
2022-11-09T20:26:23.657Z,11.07
2022-11-09T20:28:53.328Z,11.04
2022-11-09T20:31:22.094Z,11.03
2022-11-09T20:33:50.042Z,10.96
2022-11-09T20:36:18.952Z,10.94
2022-11-09T20:38:47.007Z,10.87
2022-11-09T20:41:14.287Z,10.86
2022-11-09T20:43:41.787Z,10.87
2022-11-09T20:46:20.705Z,10.86
2022-11-09T20:48:56.153Z,10.83
2022-11-09T20:51:24.758Z,10.79
2022-11-09T20:53:52.243Z,10.72
2022-11-09T20:56:20.633Z,10.71
2022-11-09T20:58:48.222Z,10.67
2022-11-09T21:01:21.201Z,10.69
2022-11-09T21:03:52.887Z,10.73
2022-11-09T21:06:20.981Z,10.68
2022-11-09T21:08:50.170Z,10.70
2022-11-09T21:11:17.882Z,10.74
2022-11-09T21:13:51.990Z,10.76
2022-11-09T21:16:21.612Z,10.79
2022-11-09T21:18:52.476Z,10.81
2022-11-09T21:21:24.318Z,10.89
2022-11-09T21:24:10.371Z,10.90
2022-11-09T21:26:56.200Z,10.92
2022-11-09T21:29:43.581Z,10.94
2022-11-09T21:32:12.036Z,10.94
2022-11-09T21:34:39.429Z,11.03
2022-11-09T21:37:06.728Z,11.09
2022-11-09T21:39:33.946Z,11.17
2022-11-09T21:42:02.437Z,11.18
2022-11-09T21:44:33.605Z,11.19
2022-11-09T21:47:01.617Z,11.19
2022-11-09T21:49:29.116Z,11.27
2022-11-09T21:51:56.893Z,11.26
2022-11-09T21:54:24.464Z,11.24
2022-11-09T21:56:52.292Z,11.22
2022-11-09T21:59:19.574Z,11.23
2022-11-09T22:01:48.160Z,11.31
2022-11-09T22:04:15.464Z,11.31
2022-11-09T22:06:43.562Z,11.30
2022-11-09T22:09:16.653Z,11.33
2022-11-09T22:12:02.920Z,11.34
2022-11-09T22:15:08.542Z,11.40
2022-11-09T22:17:35.786Z,11.36
2022-11-09T22:20:21.643Z,11.32
2022-11-09T22:22:48.833Z,11.30
2022-11-09T22:25:16.052Z,11.32
2022-11-09T22:27:46.279Z,11.34
2022-11-09T22:30:13.892Z,11.30
2022-11-09T22:32:41.209Z,11.23
2022-11-09T22:35:08.741Z,11.31
2022-11-09T22:37:36.476Z,11.30
2022-11-09T22:40:03.680Z,11.28
2022-11-09T22:42:30.860Z,11.25
2022-11-09T22:44:58.069Z,11.30
2022-11-09T22:47:25.276Z,11.33
2022-11-09T22:49:52.445Z,11.32
2022-11-09T22:52:19.657Z,11.28
2022-11-09T22:54:46.821Z,11.30
2022-11-09T22:57:14.007Z,11.24
2022-11-09T22:59:41.617Z,11.27
2022-11-09T23:02:08.977Z,11.25
2022-11-09T23:04:36.384Z,11.25
2022-11-09T23:07:03.587Z,11.24
2022-11-09T23:09:37.290Z,11.23
2022-11-09T23:12:05.865Z,11.22
2022-11-09T23:14:51.779Z,11.23
2022-11-09T23:17:37.303Z,11.27
2022-11-09T23:20:05.084Z,11.31
2022-11-09T23:22:35.203Z,11.34
2022-11-09T23:25:20.948Z,11.37
2022-11-09T23:27:53.669Z,11.36
2022-11-09T23:30:21.267Z,11.42
2022-11-09T23:32:48.587Z,11.46
2022-11-09T23:35:16.007Z,11.42
2022-11-09T23:37:43.215Z,11.39
2022-11-09T23:40:11.273Z,11.33
2022-11-09T23:42:38.517Z,11.24
2022-11-09T23:45:07.578Z,11.20
2022-11-09T23:47:34.792Z,11.16
2022-11-09T23:50:02.154Z,11.13
2022-11-09T23:52:29.349Z,11.10
2022-11-09T23:54:56.512Z,11.02
2022-11-09T23:57:23.731Z,10.98
2022-11-09T23:59:50.915Z,10.94
